Oxnard, CA (93030)

10:26 AM PDT on August 31, 2016 (GMT -0700)
Orchard Terrace | | Change Station

Elev 89 ft 34.23 °N, 119.19 °W | Updated 12 minutes ago

Clear
Clear
75.9 °F
Feels Like 78 °F
N
2.7
Wind Variable Wind from West

Today
High -- | Low -- °F
--% Chance of Precip.
Yesterday
High -- | Low -- °F
Precip. -- in
Pressure 29.87 in
Visibility 10.0 miles
Clouds Clear
Heat Index 78 °F
Dew Point 65 °F
Humidity 69%
Rainfall 0.00 in
Snow Depth Not available.
6:29 AM 7:23 PM
Waning Crescent, 0% visible
METAR KOXR 311651Z 27008KT 10SM CLR 21/17 A2987 RMK AO2 SLP115 T02110167
Pressure 29.87 in
Visibility 10.0 miles
Clouds Clear
Heat Index 78 °F
Dew Point 65 °F
Humidity 69%
Rainfall 0.00 in
Snow Depth Not available.
6:29 AM 7:23 PM
Waning Crescent, 0% visible
METAR KOXR 311651Z 27008KT 10SM CLR 21/17 A2987 RMK AO2 SLP115 T02110167

10-Day Weather Forecast

Almanac

Astronomy

Aug. 31, 2016 Rise Set
Actual Time
Civil Twilight
Nautical Twilight
Astronomical Twilight
Moon
Length of Visible Light
Length of Day
Tomorrow will be .
, % of the Moon is Illuminated

Today's Extremes

State Highs State Lows

Community

WunderPhotos

Upload Photos

1,936,137 photos uploaded!

WunderBlog® & News

Nearby

Air Quality

  Air Quality AQ Index Pollutant
Not available.

Snow Depth

Station Depth Elevation

Earthquake Activity

City Distance Mag. Time & Date
Minimum magnitude displayed is 2.5.

Coastal Water Temperatures

Place Temperature

Stations

Nearby Weather Stations

Station Location Temp. Windchill Dew Point Humidity Wind Precip. Elev Updated Type
                   

Watches & Warnings

There are currently no watches in effect.